Fairview, Illinois
Current Conditions -  °F | °C
As of 4:54 PM on Saturday 25 Oct 2014 (Local Time) from KPIA Reporting Station
Clear Clear  
Wind Chill: 75°   Ceiling: Unl
Heat Index: 75°   Visibility: 10mi
Dew Point: 37°   Wind: 7mph
Humidity: 25%   Direction: 310°NW
Pressure: 29.99"   Gusts: NA
Location:  40.63°N, 90.16°W
Report Text: KPIA 252154Z 31006KT 10SM CLR 24/03 A2999 RMK AO2 SLP155 T02390028
Loading
Personal Weather Stations






























Interactive Weather Map
Tropical Storm Tracking
New forecast layout! Learn more

10-Day Weather Forecast

Advertisements
Track Severe Weather on mobile